This is the latest recevied weather packets stored in our database for station/object WB7AAV. If no packets are shown the sender has not sent any weather packets the latest 10 day(s).
| Time | Temp. | Humidity | Pressure | Rain* | Wind** | Luminosity | Snow |
|---|---|---|---|---|---|---|---|
| 1777588564 | 2.78° C | 93% | 1020.3 hPa | 0.25 mm | - | - | - |
| 1777586761 | 2.22° C | 93% | 1020.4 hPa | 0.51 mm | - | - | - |
| 1777584661 | 2.22° C | 92% | 1020.5 hPa | 0 mm | - | - | - |
| 1777582559 | 2.22° C | 92% | 1020.7 hPa | 0.25 mm | - | - | - |
| 1777581356 | 2.22° C | 92% | 1020.6 hPa | 0.51 mm | - | - | - |
| 1777580456 | 2.22° C | 92% | 1020.6 hPa | 0.76 mm | - | - | - |
| 1777579856 | 2.22° C | 92% | 1020.6 hPa | 0.76 mm | - | - | - |
| 1777579256 | 2.22° C | 92% | 1020.6 hPa | 0.51 mm | - | - | - |
| 1777576554 | 2.78° C | 88% | 1020.7 hPa | 0 mm | - | - | - |
| 1777576259 | 2.78° C | 86% | 1020.9 hPa | 0 mm | - | - | - |
| 1777576038 | 2.78° C | 86% | 1020.9 hPa | 0 mm | - | - | - |
| 1777575361 | 2.78° C | 86% | 1020.9 hPa | 0 mm | - | - | - |
| 1777574154 | 3.33° C | 85% | 1020.9 hPa | 0 mm | - | - | - |
| 1777573253 | 3.33° C | 84% | 1021 hPa | 0 mm | - | - | - |
| 1777569051 | 3.33° C | 82% | 1021.1 hPa | 0 mm | - | - | - |
| 1777568749 | 2.78° C | 83% | 1021.1 hPa | 0 mm | - | - | - |
| 1777566650 | 3.33° C | 81% | 1021.2 hPa | 0 mm | - | - | - |
| 1777565750 | 2.78° C | 82% | 1021.1 hPa | 0.25 mm | - | - | - |
| 1777564250 | 2.78° C | 82% | 1021 hPa | 0.51 mm | - | - | - |
| 1777563651 | 2.78° C | 85% | 1021 hPa | 1.02 mm | - | - | - |
| 1777562454 | 2.78° C | 87% | 1021.1 hPa | 1.52 mm | - | - | - |
| 1777562449 | 2.78° C | 85% | 1021.1 hPa | 1.52 mm | - | - | - |
| 1777561249 | 2.78° C | 91% | 1021.2 hPa | 1.78 mm | - | - | - |
| 1777560950 | 2.78° C | 93% | 1021.2 hPa | 1.78 mm | - | - | - |
| 1777558845 | 2.22° C | 94% | 1021.3 hPa | 1.27 mm | - | - | - |
* Rain latest hour (hover to see other rain measurements)
** Current wind speed in m/s (hover to see current wind gust speed)